createdAt,value
2018-11-14T00:00:28.319Z,99680.70
2018-11-14T00:02:58.483Z,99692.03
2018-11-14T00:05:28.090Z,99690.31
2018-11-14T00:07:57.595Z,99696.60
2018-11-14T00:10:27.096Z,99698.55
2018-11-14T00:12:56.379Z,99690.86
2018-11-14T00:15:26.398Z,99694.63
2018-11-14T00:17:55.799Z,99693.52
2018-11-14T00:20:25.260Z,99693.08
2018-11-14T00:22:54.512Z,99692.19
2018-11-14T00:25:24.022Z,99688.92
2018-11-14T00:27:53.581Z,99691.36
2018-11-14T00:30:25.179Z,99689.89
2018-11-14T00:32:54.813Z,99689.57
2018-11-14T00:35:24.057Z,99703.75
2018-11-14T00:37:53.388Z,99706.30
2018-11-14T00:40:22.892Z,99708.31
2018-11-14T00:42:52.291Z,99706.85
2018-11-14T00:45:23.201Z,99710.23
2018-11-14T00:47:52.837Z,99709.48
2018-11-14T00:50:22.238Z,99708.92
2018-11-14T00:52:51.566Z,99708.65
2018-11-14T00:55:22.168Z,99706.42
2018-11-14T00:57:52.672Z,99708.57
2018-11-14T01:00:24.249Z,99707.33
2018-11-14T01:02:53.823Z,99717.20
2018-11-14T01:05:23.123Z,99724.05
2018-11-14T01:07:52.335Z,99724.14
2018-11-14T01:10:22.439Z,99738.11
2018-11-14T01:12:52.118Z,99739.34
2018-11-14T01:15:22.709Z,99734.77
2018-11-14T01:17:51.993Z,99735.96
2018-11-14T01:20:22.249Z,99733.38
2018-11-14T01:22:51.510Z,99726.20
2018-11-14T01:25:20.927Z,99731.22
2018-11-14T01:27:50.432Z,99732.69
2018-11-14T01:30:21.028Z,99728.25
2018-11-14T01:32:50.770Z,99726.56
2018-11-14T01:35:20.218Z,99720.52
2018-11-14T01:37:49.782Z,99733.48
2018-11-14T01:40:21.637Z,99730.69
2018-11-14T01:42:53.560Z,99732.53
2018-11-14T01:45:23.412Z,99728.41
2018-11-14T01:47:52.915Z,99722.01
2018-11-14T01:50:22.318Z,99722.16
2018-11-14T01:52:51.723Z,99717.50
2018-11-14T01:55:21.803Z,99718.51
2018-11-14T01:57:51.243Z,99715.41
2018-11-14T02:00:23.044Z,99717.06
2018-11-14T02:02:52.502Z,99718.94
2018-11-14T02:05:22.005Z,99717.39
2018-11-14T02:07:51.411Z,99714.64
2018-11-14T02:10:21.535Z,99715.10
2018-11-14T02:12:51.040Z,99713.20
2018-11-14T02:15:23.614Z,99715.36
2018-11-14T02:17:54.549Z,99709.59
2018-11-14T02:20:23.844Z,99711.67
2018-11-14T02:22:53.351Z,99708.59
2018-11-14T02:25:22.759Z,99717.60
2018-11-14T02:27:52.003Z,99712.02
2018-11-14T02:30:22.832Z,99713.66
2018-11-14T02:32:52.284Z,99709.98
2018-11-14T02:35:21.498Z,99721.80
2018-11-14T02:37:50.879Z,99725.51
2018-11-14T02:40:21.323Z,99727.42
2018-11-14T02:42:50.814Z,99732.11
2018-11-14T02:45:20.064Z,99719.73
2018-11-14T02:47:49.559Z,99726.54
2018-11-14T02:50:19.237Z,99726.13
2018-11-14T02:52:48.731Z,99730.69
2018-11-14T02:55:18.699Z,99730.09
2018-11-14T02:57:48.146Z,99722.80
2018-11-14T03:00:18.831Z,99720.60
2018-11-14T03:02:48.368Z,99709.98
2018-11-14T03:05:17.888Z,99713.11
2018-11-14T03:07:47.179Z,99714.73
2018-11-14T03:10:18.824Z,99716.12
2018-11-14T03:12:48.243Z,99712.79
2018-11-14T03:15:19.593Z,99712.10
2018-11-14T03:17:48.951Z,99709.86
2018-11-14T03:20:19.465Z,99703.16
2018-11-14T03:22:48.705Z,99700.89
2018-11-14T03:25:17.922Z,99698.30
2018-11-14T03:27:47.315Z,99697.91
2018-11-14T03:30:17.999Z,99696.11
2018-11-14T03:32:47.451Z,99703.00
2018-11-14T03:35:16.866Z,99710.72
2018-11-14T03:37:46.358Z,99710.16
2018-11-14T03:40:16.962Z,99705.36
2018-11-14T03:42:46.353Z,99708.14
2018-11-14T03:45:16.202Z,99709.45
2018-11-14T03:47:45.606Z,99707.48
2018-11-14T03:50:15.106Z,99707.75
2018-11-14T03:52:44.410Z,99716.31
2018-11-14T03:55:13.808Z,99714.18
2018-11-14T03:57:43.113Z,99707.70
2018-11-14T04:00:14.718Z,99713.58
2018-11-14T04:02:45.038Z,99705.83
2018-11-14T04:05:14.369Z,99703.97
2018-11-14T04:07:43.675Z,99696.09
2018-11-14T04:10:13.808Z,99698.87
2018-11-14T04:12:43.419Z,99694.41
2018-11-14T04:15:13.825Z,99698.97
2018-11-14T04:17:43.234Z,99708.07
2018-11-14T04:20:14.143Z,99707.42
2018-11-14T04:22:43.775Z,99702.44
2018-11-14T04:25:14.999Z,99704.28
2018-11-14T04:27:45.021Z,99701.58
2018-11-14T04:30:15.518Z,99697.78
2018-11-14T04:32:45.181Z,99691.34
2018-11-14T04:35:15.473Z,99693.28
2018-11-14T04:37:45.115Z,99697.75
2018-11-14T04:40:16.773Z,99698.70
2018-11-14T04:42:45.996Z,99692.05
2018-11-14T04:45:17.611Z,99697.27
2018-11-14T04:47:46.948Z,99694.50
2018-11-14T04:50:21.348Z,99703.43
2018-11-14T04:52:51.458Z,99703.35
2018-11-14T04:55:21.976Z,99699.94
2018-11-14T04:57:51.435Z,99697.45
2018-11-14T05:00:21.744Z,99703.64
2018-11-14T05:02:51.514Z,99713.20
2018-11-14T05:05:22.203Z,99704.47
2018-11-14T05:07:51.652Z,99696.09
2018-11-14T05:10:23.506Z,99705.16
2018-11-14T05:12:53.400Z,99700.14
2018-11-14T05:15:23.951Z,99704.66
2018-11-14T05:17:53.622Z,99707.05
2018-11-14T05:20:23.227Z,99701.45
2018-11-14T05:22:52.667Z,99709.20
2018-11-14T05:25:21.891Z,99710.40
2018-11-14T05:27:51.368Z,99709.78
2018-11-14T05:30:22.203Z,99705.48
2018-11-14T05:32:51.895Z,99703.73
2018-11-14T05:35:21.314Z,99713.16
2018-11-14T05:37:51.023Z,99716.75
2018-11-14T05:40:21.809Z,99713.55
2018-11-14T05:42:51.778Z,99712.81
2018-11-14T05:45:26.447Z,99716.98
2018-11-14T05:47:55.800Z,99702.84
2018-11-14T05:50:25.222Z,99695.38
2018-11-14T05:52:54.704Z,99701.33
2018-11-14T05:55:23.957Z,99698.93
2018-11-14T05:57:53.302Z,99697.87
2018-11-14T06:00:30.077Z,99695.50
2018-11-14T06:03:00.317Z,99694.33
2018-11-14T06:05:29.636Z,99694.19
2018-11-14T06:07:59.204Z,99695.50
2018-11-14T06:10:28.462Z,99694.33
2018-11-14T06:12:57.674Z,99703.23
2018-11-14T06:15:27.195Z,99704.09
2018-11-14T06:17:57.362Z,99702.89
2018-11-14T06:20:26.725Z,99696.81
2018-11-14T06:22:56.226Z,99697.80
2018-11-14T06:25:29.533Z,99692.66
2018-11-14T06:27:59.590Z,99692.44
2018-11-14T06:30:29.349Z,99701.72
2018-11-14T06:32:59.389Z,99706.70
2018-11-14T06:35:28.717Z,99707.77
2018-11-14T06:37:58.126Z,99698.41
2018-11-14T06:40:27.490Z,99690.78
2018-11-14T06:42:56.869Z,99703.73
2018-11-14T06:45:27.564Z,99710.27
2018-11-14T06:47:58.023Z,99705.41
2018-11-14T06:50:27.527Z,99710.16
2018-11-14T06:52:58.178Z,99714.80
2018-11-14T06:55:27.469Z,99722.08
2018-11-14T06:57:56.831Z,99734.41
2018-11-14T07:00:28.521Z,99733.60
2018-11-14T07:02:58.269Z,99741.93
2018-11-14T07:05:27.696Z,99739.52
2018-11-14T07:07:57.279Z,99743.00
2018-11-14T07:10:28.168Z,99736.30
2018-11-14T07:13:02.826Z,99734.27
2018-11-14T07:15:32.611Z,99751.55
2018-11-14T07:18:01.944Z,99731.44
2018-11-14T07:20:33.643Z,99731.53
2018-11-14T07:23:03.452Z,99728.05
2018-11-14T07:25:33.800Z,99728.42
2018-11-14T07:28:04.157Z,99733.05
2018-11-14T07:30:35.049Z,99729.59
2018-11-14T07:33:06.402Z,99722.91
2018-11-14T07:35:36.491Z,99727.65
2018-11-14T07:38:47.196Z,99725.61
2018-11-14T07:41:19.428Z,99726.78
2018-11-14T07:43:49.763Z,99734.53
2018-11-14T07:46:20.011Z,99737.13
2018-11-14T07:48:50.980Z,99739.17
2018-11-14T07:51:21.219Z,99747.10
2018-11-14T07:53:51.444Z,99748.77
2018-11-14T07:56:21.348Z,99739.91
2018-11-14T07:58:51.233Z,99741.92
2018-11-14T08:01:21.253Z,99742.66
2018-11-14T08:03:51.139Z,99739.56
2018-11-14T08:06:21.065Z,99737.70
2018-11-14T08:08:50.692Z,99736.31
2018-11-14T08:11:20.356Z,99746.38
2018-11-14T08:13:50.412Z,99744.44
2018-11-14T08:16:20.226Z,99748.58
2018-11-14T08:18:50.237Z,99747.88
2018-11-14T08:21:20.235Z,99742.55
2018-11-14T08:23:49.851Z,99749.80
2018-11-14T08:26:19.278Z,99748.13
2018-11-14T08:28:48.749Z,99750.23
2018-11-14T08:31:18.155Z,99748.01
2018-11-14T08:33:47.369Z,99748.89
2018-11-14T08:36:16.850Z,99746.80
2018-11-14T08:38:46.187Z,99751.25
2018-11-14T08:41:15.550Z,99755.84
2018-11-14T08:43:44.953Z,99747.39
2018-11-14T08:46:14.544Z,99741.70
2018-11-14T08:48:43.964Z,99739.02
2018-11-14T08:51:13.360Z,99748.43
2018-11-14T08:53:42.872Z,99743.48
2018-11-14T08:56:12.581Z,99757.20
2018-11-14T08:58:42.081Z,99752.67
2018-11-14T09:01:13.735Z,99751.86
2018-11-14T09:03:43.138Z,99756.94
2018-11-14T09:06:12.556Z,99755.62
2018-11-14T09:08:41.943Z,99754.05
2018-11-14T09:11:11.480Z,99757.75
2018-11-14T09:13:40.948Z,99755.97
2018-11-14T09:16:10.453Z,99748.39
2018-11-14T09:18:39.734Z,99755.41
2018-11-14T09:21:09.159Z,99764.77
2018-11-14T09:23:38.401Z,99763.80
2018-11-14T09:26:07.824Z,99772.61
2018-11-14T09:28:37.046Z,99774.27
2018-11-14T09:31:06.458Z,99777.64
2018-11-14T09:33:35.861Z,99780.09
2018-11-14T09:36:05.199Z,99785.14
2018-11-14T09:38:34.557Z,99783.94
2018-11-14T09:41:04.249Z,99784.91
2018-11-14T09:43:33.568Z,99784.59
2018-11-14T09:46:02.864Z,99778.84
2018-11-14T09:48:32.398Z,99773.28
2018-11-14T09:51:01.771Z,99782.84
2018-11-14T09:53:31.044Z,99774.16
2018-11-14T09:56:00.777Z,99779.18
2018-11-14T09:58:30.177Z,99765.00
2018-11-14T10:00:59.682Z,99772.06
2018-11-14T10:03:29.025Z,99767.33
2018-11-14T10:05:58.396Z,99766.77
2018-11-14T10:08:28.751Z,99766.75
2018-11-14T10:10:58.275Z,99768.05
2018-11-14T10:13:27.630Z,99768.86
2018-11-14T10:15:57.118Z,99770.50
2018-11-14T10:18:26.667Z,99773.72
2018-11-14T10:20:56.126Z,99764.23
2018-11-14T10:23:25.431Z,99760.09
2018-11-14T10:25:54.929Z,99754.14
2018-11-14T10:28:24.437Z,99764.13
2018-11-14T10:30:53.726Z,99760.33
2018-11-14T10:33:23.035Z,99757.65
2018-11-14T10:35:52.434Z,99758.28
2018-11-14T10:38:21.836Z,99760.80
2018-11-14T10:40:51.235Z,99751.77
2018-11-14T10:43:20.847Z,99761.06
2018-11-14T10:45:50.349Z,99763.52
2018-11-14T10:48:20.053Z,99762.21
2018-11-14T10:50:50.604Z,99768.61
2018-11-14T10:53:20.220Z,99750.18
2018-11-14T10:55:49.596Z,99747.03
2018-11-14T10:58:18.887Z,99730.81
2018-11-14T11:00:49.218Z,99743.30
2018-11-14T11:03:24.150Z,99743.31
2018-11-14T11:05:58.979Z,99744.68
2018-11-14T11:08:33.538Z,99749.23
2018-11-14T11:11:09.131Z,99749.73
2018-11-14T11:14:12.758Z,99497.28
2018-11-14T11:16:48.470Z,99751.09
2018-11-14T11:19:19.432Z,99740.88
2018-11-14T11:21:48.839Z,99733.36
2018-11-14T11:24:20.191Z,99719.66
2018-11-14T11:26:49.586Z,99720.84
2018-11-14T11:29:19.092Z,99716.96
2018-11-14T11:31:48.518Z,99717.27
2018-11-14T11:34:17.932Z,99709.88
2018-11-14T11:36:47.297Z,99702.23
2018-11-14T11:39:17.754Z,99706.62
2018-11-14T11:41:47.624Z,99714.00
2018-11-14T11:44:17.075Z,99720.16
2018-11-14T11:46:46.644Z,99718.98
2018-11-14T11:49:16.094Z,99714.84
2018-11-14T11:51:45.451Z,99719.53
2018-11-14T11:54:14.685Z,99715.16
2018-11-14T11:56:44.152Z,99721.16
2018-11-14T11:59:13.340Z,99727.20
2018-11-14T12:01:42.748Z,99723.17
2018-11-14T12:04:12.149Z,99721.47
2018-11-14T12:06:41.654Z,99724.34
2018-11-14T12:09:12.236Z,99716.94
2018-11-14T12:11:41.792Z,99705.89
2018-11-14T12:14:11.297Z,99698.14
2018-11-14T12:16:40.599Z,99699.03
2018-11-14T12:19:10.016Z,99710.63
2018-11-14T12:21:39.496Z,99701.06
2018-11-14T12:24:08.774Z,99704.02
2018-11-14T12:26:38.300Z,99700.32
2018-11-14T12:29:07.558Z,99701.58
2018-11-14T12:31:37.226Z,99711.26
2018-11-14T12:34:07.049Z,99704.80
2018-11-14T12:36:36.888Z,99703.34
2018-11-14T12:39:08.412Z,99699.77
2018-11-14T12:41:37.892Z,99692.04
2018-11-14T12:44:07.396Z,99693.52
2018-11-14T12:46:36.739Z,99682.48
2018-11-14T12:49:06.199Z,99676.36
2018-11-14T12:51:35.699Z,99679.05
2018-11-14T12:54:05.207Z,99679.94
2018-11-14T12:56:34.792Z,99672.48
2018-11-14T12:59:04.214Z,99666.70
2018-11-14T13:01:34.119Z,99657.08
2018-11-14T13:04:03.648Z,99656.19
2018-11-14T13:06:33.284Z,99651.06
2018-11-14T13:09:02.982Z,99651.09
2018-11-14T13:11:32.813Z,99641.14
2018-11-14T13:14:02.663Z,99636.51
2018-11-14T13:16:32.377Z,99636.67
2018-11-14T13:19:02.199Z,99640.80
2018-11-14T13:21:31.797Z,99642.52
2018-11-14T13:24:01.404Z,99633.05
2018-11-14T13:26:31.011Z,99633.02
2018-11-14T13:29:00.381Z,99636.83
2018-11-14T13:31:29.925Z,99636.83
2018-11-14T13:33:59.421Z,99635.00
2018-11-14T13:36:28.821Z,99635.55
2018-11-14T13:38:58.223Z,99640.34
2018-11-14T13:41:27.521Z,99640.06
2018-11-14T13:43:57.143Z,99641.56
2018-11-14T13:46:26.649Z,99644.37
2018-11-14T13:48:56.096Z,99639.56
2018-11-14T13:51:25.441Z,99641.23
2018-11-14T13:53:54.885Z,99644.54
2018-11-14T13:56:24.370Z,99649.02
2018-11-14T13:58:53.753Z,99650.34
2018-11-14T14:01:23.640Z,99647.38
2018-11-14T14:03:52.986Z,99647.22
2018-11-14T14:06:22.460Z,99645.06
2018-11-14T14:08:51.762Z,99646.39
2018-11-14T14:11:21.172Z,99650.02
2018-11-14T14:13:55.789Z,99652.83
2018-11-14T14:16:25.329Z,99647.88
2018-11-14T14:18:54.716Z,99661.50
2018-11-14T14:21:25.120Z,99662.96
2018-11-14T14:23:54.729Z,99660.98
2018-11-14T14:26:24.127Z,99667.30
2018-11-14T14:28:53.644Z,99660.89
2018-11-14T14:31:23.370Z,99653.09
2018-11-14T14:33:52.847Z,99664.46
2018-11-14T14:36:22.552Z,99672.52
2018-11-14T14:38:52.160Z,99672.84
2018-11-14T14:41:21.664Z,99666.73
2018-11-14T14:43:51.390Z,99673.35
2018-11-14T14:46:20.775Z,99674.42
2018-11-14T14:48:50.312Z,99673.08
2018-11-14T14:51:19.681Z,99372.00
2018-11-14T14:53:49.407Z,99675.50
2018-11-14T14:56:19.100Z,99667.95
2018-11-14T14:58:48.601Z,99665.26
2018-11-14T15:01:22.202Z,99667.88
2018-11-14T15:03:51.498Z,99665.84
2018-11-14T15:06:21.340Z,99666.80
2018-11-14T15:08:50.818Z,99673.72
2018-11-14T15:11:20.220Z,99671.22
2018-11-14T15:13:49.681Z,99703.35
2018-11-14T15:16:19.243Z,99672.00
2018-11-14T15:18:48.721Z,99675.92
2018-11-14T15:21:18.134Z,99670.95
2018-11-14T15:23:47.945Z,99675.19
2018-11-14T15:26:17.437Z,99672.34
2018-11-14T15:28:47.125Z,99675.91
2018-11-14T15:31:16.663Z,99672.61
2018-11-14T15:33:46.168Z,99668.53
2018-11-14T15:36:15.568Z,99660.27
2018-11-14T15:38:45.097Z,99661.59
2018-11-14T15:41:14.486Z,99660.88
2018-11-14T15:43:43.798Z,99665.41
2018-11-14T15:46:13.282Z,99666.19
2018-11-14T15:48:42.783Z,99661.89
2018-11-14T15:51:12.731Z,99666.33
2018-11-14T15:53:42.408Z,99667.42
2018-11-14T15:56:12.713Z,99680.01
2018-11-14T15:58:42.224Z,99666.44
2018-11-14T16:01:11.769Z,99670.20
2018-11-14T16:03:41.339Z,99665.02
2018-11-14T16:06:10.847Z,99662.50
2018-11-14T16:08:41.153Z,99663.93
2018-11-14T16:11:10.859Z,99661.55
2018-11-14T16:13:40.592Z,99661.84
2018-11-14T16:16:10.300Z,99661.38
2018-11-14T16:18:40.007Z,99652.63
2018-11-14T16:21:10.023Z,99657.33
2018-11-14T16:23:39.709Z,99660.56
2018-11-14T16:26:09.421Z,99654.38
2018-11-14T16:28:39.329Z,99645.66
2018-11-14T16:31:08.757Z,99646.80
2018-11-14T16:33:38.230Z,99645.11
2018-11-14T16:36:07.866Z,99643.19
2018-11-14T16:38:37.105Z,99641.63
2018-11-14T16:41:06.892Z,99640.13
2018-11-14T16:43:36.189Z,99644.42
2018-11-14T16:46:06.626Z,99633.42
2018-11-14T16:48:36.105Z,99628.58
2018-11-14T16:51:06.081Z,99630.63
2018-11-14T16:53:35.527Z,99633.53
2018-11-14T16:56:05.510Z,99632.42
2018-11-14T16:58:35.045Z,99633.75
2018-11-14T17:01:04.448Z,99629.38
2018-11-14T17:03:33.974Z,99629.22
2018-11-14T17:06:03.382Z,99624.14
2018-11-14T17:08:33.185Z,99617.58
2018-11-14T17:11:02.736Z,99620.20
2018-11-14T17:13:32.382Z,99622.80
2018-11-14T17:16:02.087Z,99621.95
2018-11-14T17:18:31.590Z,99628.52
2018-11-14T17:21:01.115Z,99624.88
2018-11-14T17:23:30.547Z,99624.28
2018-11-14T17:25:59.791Z,99618.40
2018-11-14T17:28:29.255Z,99610.70
2018-11-14T17:30:58.598Z,99609.59
2018-11-14T17:33:27.899Z,99606.20
2018-11-14T17:35:57.459Z,99605.91
2018-11-14T17:38:27.112Z,99606.57
2018-11-14T17:40:56.508Z,99599.92
2018-11-14T17:43:26.018Z,99604.45
2018-11-14T17:45:57.370Z,99595.72
2018-11-14T17:48:27.072Z,99584.94
2018-11-14T17:50:56.631Z,99592.69
2018-11-14T17:53:26.081Z,99591.55
2018-11-14T17:55:55.688Z,99591.84
2018-11-14T17:58:24.995Z,99583.94
2018-11-14T18:00:54.408Z,99592.05
2018-11-14T18:03:23.794Z,99589.92
2018-11-14T18:05:53.296Z,99589.09
2018-11-14T18:08:22.799Z,99588.19
2018-11-14T18:10:52.383Z,99596.74
2018-11-14T18:13:21.807Z,99589.41
2018-11-14T18:15:51.926Z,99584.69
2018-11-14T18:18:21.532Z,99587.69
2018-11-14T18:20:50.942Z,99581.02
2018-11-14T18:23:20.378Z,99580.19
2018-11-14T18:25:50.106Z,99580.92
2018-11-14T18:28:20.377Z,99195.83
2018-11-14T18:30:49.871Z,99577.95
2018-11-14T18:33:19.376Z,99573.66
2018-11-14T18:35:48.778Z,99568.08
2018-11-14T18:38:18.075Z,99569.39
2018-11-14T18:40:47.480Z,99570.61
2018-11-14T18:43:16.984Z,99572.18
2018-11-14T18:45:46.543Z,99576.59
2018-11-14T18:48:17.366Z,99577.42
2018-11-14T18:50:47.032Z,99575.02
2018-11-14T18:53:17.355Z,99580.16
2018-11-14T18:55:46.788Z,99578.31
2018-11-14T18:58:16.160Z,99585.81
2018-11-14T19:00:45.969Z,99582.46
2018-11-14T19:03:15.372Z,99590.32
2018-11-14T19:05:44.877Z,99593.30
2018-11-14T19:08:14.179Z,99597.71
2018-11-14T19:10:45.123Z,99591.19
2018-11-14T19:13:14.597Z,99598.75
2018-11-14T19:15:43.914Z,99594.88
2018-11-14T19:18:13.423Z,99596.02
2018-11-14T19:20:42.951Z,99600.16
2018-11-14T19:23:12.326Z,99600.95
2018-11-14T19:25:41.814Z,99602.98
2018-11-14T19:28:11.107Z,99602.16
2018-11-14T19:30:40.661Z,99602.74
2018-11-14T19:33:09.873Z,99600.52
2018-11-14T19:35:39.163Z,99598.64
2018-11-14T19:38:08.535Z,99599.80
2018-11-14T19:40:38.418Z,99606.34
2018-11-14T19:43:10.628Z,99595.66
2018-11-14T19:45:40.789Z,99595.77
2018-11-14T19:48:10.643Z,99598.97
2018-11-14T19:50:40.374Z,99601.98
2018-11-14T19:53:09.757Z,99599.11
2018-11-14T19:55:39.319Z,99595.70
2018-11-14T19:58:08.662Z,99607.13
2018-11-14T20:00:39.124Z,99601.05
2018-11-14T20:03:09.123Z,99599.27
2018-11-14T20:05:38.410Z,99605.08
2018-11-14T20:08:07.907Z,99601.52
2018-11-14T20:10:37.313Z,99609.64
2018-11-14T20:13:06.692Z,99600.73
2018-11-14T20:15:37.140Z,99606.44
2018-11-14T20:18:07.149Z,99597.42
2018-11-14T20:20:37.985Z,99600.58
2018-11-14T20:23:07.391Z,99606.53
2018-11-14T20:25:36.922Z,99600.35
2018-11-14T20:28:06.501Z,99604.75
2018-11-14T20:30:37.271Z,99607.14
2018-11-14T20:33:10.976Z,99603.11
2018-11-14T20:35:40.440Z,99612.73
2018-11-14T20:38:10.053Z,99605.50
2018-11-14T20:40:41.171Z,99619.55
2018-11-14T20:43:10.912Z,99617.43
2018-11-14T20:45:40.411Z,99616.47
2018-11-14T20:48:10.283Z,99620.63
2018-11-14T20:50:39.818Z,99613.75
2018-11-14T20:53:09.262Z,99613.64
2018-11-14T20:55:38.763Z,99606.16
2018-11-14T20:58:08.148Z,99608.05
2018-11-14T21:00:38.348Z,99607.83
2018-11-14T21:03:08.482Z,99610.19
2018-11-14T21:05:37.739Z,99611.75
2018-11-14T21:08:07.367Z,99614.00
2018-11-14T21:10:36.774Z,99610.92
2018-11-14T21:13:06.746Z,99611.98
2018-11-14T21:15:37.523Z,99612.80
2018-11-14T21:18:07.332Z,99611.49
2018-11-14T21:20:36.737Z,99608.06
2018-11-14T21:23:06.447Z,99613.89
2018-11-14T21:25:36.056Z,99607.23
2018-11-14T21:28:05.865Z,99607.09
2018-11-14T21:30:35.470Z,99604.02
2018-11-14T21:33:04.978Z,99604.96
2018-11-14T21:35:35.812Z,99609.22
2018-11-14T21:38:06.868Z,99609.43
2018-11-14T21:40:36.254Z,99608.16
2018-11-14T21:43:06.423Z,99601.39
2018-11-14T21:45:35.676Z,99600.32
2018-11-14T21:48:14.357Z,99598.28
2018-11-14T21:50:43.814Z,99602.70
2018-11-14T21:53:13.235Z,99596.17
2018-11-14T21:55:42.447Z,99598.52
2018-11-14T21:58:11.990Z,99593.30
2018-11-14T22:00:41.808Z,99596.50
2018-11-14T22:03:11.721Z,99591.85
2018-11-14T22:05:41.301Z,99594.33
2018-11-14T22:08:10.878Z,99591.12
2018-11-14T22:10:40.455Z,99596.61
2018-11-14T22:13:09.846Z,99588.27
2018-11-14T22:15:39.106Z,99587.33
2018-11-14T22:18:08.443Z,99584.59
2018-11-14T22:20:37.840Z,99588.27
2018-11-14T22:23:07.243Z,99587.33
2018-11-14T22:25:36.643Z,99590.28
2018-11-14T22:28:06.172Z,99590.98
2018-11-14T22:30:35.855Z,99587.06
2018-11-14T22:33:05.290Z,99590.84
2018-11-14T22:35:34.643Z,99591.27
2018-11-14T22:38:04.264Z,99590.73
2018-11-14T22:40:33.670Z,99585.42
2018-11-14T22:43:03.036Z,99586.67
2018-11-14T22:45:33.187Z,99583.83
2018-11-14T22:48:02.693Z,99580.52
2018-11-14T22:50:32.171Z,99571.95
2018-11-14T22:53:01.701Z,99569.70
2018-11-14T22:55:30.984Z,99565.28
2018-11-14T22:58:00.400Z,99568.59
2018-11-14T23:00:31.338Z,99555.64
2018-11-14T23:03:02.281Z,99558.80
2018-11-14T23:05:31.509Z,99557.11
2018-11-14T23:08:01.180Z,99553.34
2018-11-14T23:10:30.898Z,99550.73
2018-11-14T23:13:00.226Z,99547.66
2018-11-14T23:15:30.024Z,99548.55
2018-11-14T23:17:59.710Z,99540.34
2018-11-14T23:20:28.982Z,99542.61
2018-11-14T23:22:58.298Z,99542.23
2018-11-14T23:25:27.603Z,99548.11
2018-11-14T23:27:57.214Z,99545.78
2018-11-14T23:30:27.479Z,99550.81
2018-11-14T23:32:57.451Z,99559.52
2018-11-14T23:35:28.963Z,99549.81
2018-11-14T23:37:59.530Z,99540.35
2018-11-14T23:40:29.345Z,99530.31
2018-11-14T23:42:58.848Z,99521.26
2018-11-14T23:45:28.907Z,99512.84
2018-11-14T23:47:58.125Z,99513.48
2018-11-14T23:50:29.607Z,99521.94
2018-11-14T23:53:00.137Z,99526.44
2018-11-14T23:55:30.431Z,99524.20
2018-11-14T23:58:00.275Z,99518.02
